Time;durP1;ratioP1;P1;durP2;ratioP2;P2;SDS_P1;SDS_P2;PMS_P1;PMS_P2;Temp;Humidity;BMP_temperature;BMP_pressure;BME280_temperature;BME280_humidity;BME280_pressure;Samples;Min_cycle;Max_cycle;Signal;HPM_P1;HPM_P2
2022/10/20 00:03:17;;;;;;;1.77;0.77;;;;;;;19.50;44.08;101481.56;16124633;19;129448;-39
2022/10/20 00:08:40;;;;;;;2.17;0.80;;;;;;;19.48;44.31;101475.41;16124426;19;129098;-39
2022/10/20 00:14:03;;;;;;;1.50;0.90;;;;;;;19.48;44.09;101475.41;16125647;19;130029;-39
2022/10/20 00:19:24;;;;;;;1.38;0.75;;;;;;;19.46;44.13;101480.34;16123290;19;130837;-39
2022/10/20 00:24:46;;;;;;;0.80;0.80;;;;;;;19.45;44.41;101470.31;16123571;19;129859;-38
2022/10/20 00:30:08;;;;;;;1.33;0.70;;;;;;;19.44;43.98;101471.44;16123204;19;129879;-39
2022/10/20 00:35:32;;;;;;;0.75;0.60;;;;;;;19.43;44.08;101459.47;16125570;19;129409;-39
2022/10/20 00:40:54;;;;;;;1.38;0.90;;;;;;;19.42;44.26;101455.00;16127594;19;129762;-39
2022/10/20 00:46:22;;;;;;;1.20;0.65;;;;;;;19.41;44.28;101431.13;16125695;19;133602;-39
2022/10/20 00:51:44;;;;;;;1.48;0.70;;;;;;;19.40;44.15;101431.38;16128004;19;129319;-40
2022/10/20 00:57:06;;;;;;;1.50;0.70;;;;;;;19.38;44.47;101414.97;16124876;19;129955;-39
2022/10/20 01:02:27;;;;;;;1.98;0.95;;;;;;;19.38;44.22;101410.25;16121292;19;129780;-39
2022/10/20 01:07:49;;;;;;;0.85;0.65;;;;;;;19.37;44.10;101418.81;16122334;19;129499;-38
2022/10/20 01:13:26;;;;;;;1.40;0.82;;;;;;;19.37;43.97;101414.09;16122100;19;129482;-38
2022/10/20 01:19:21;;;;;;;2.80;0.90;;;;;;;19.36;44.24;101406.03;16120783;19;129316;-38
2022/10/20 01:25:16;;;;;;;1.00;0.75;;;;;;;19.36;44.46;101406.03;16122074;19;129139;-39
2022/10/20 01:30:45;;;;;;;2.10;0.77;;;;;;;19.34;44.02;101392.38;16124056;19;131480;-38
2022/10/20 01:36:16;;;;;;;0.80;0.75;;;;;;;19.33;44.16;101379.59;16120976;19;129612;-39
2022/10/20 01:42:10;;;;;;;0.60;0.60;;;;;;;19.33;44.02;101367.66;16130602;19;130188;-39
2022/10/20 01:47:34;;;;;;;2.00;0.70;;;;;;;19.30;44.12;101349.59;16135312;19;130226;-39
2022/10/20 01:52:56;;;;;;;1.13;0.63;;;;;;;19.30;44.30;101345.94;16134713;19;131650;-38
2022/10/20 01:58:47;;;;;;;0.82;0.70;;;;;;;19.31;44.46;101348.50;16137170;19;129718;-39
2022/10/20 02:04:10;;;;;;;1.25;0.70;;;;;;;19.29;44.39;101334.03;16134859;19;130901;-39
2022/10/20 02:09:39;;;;;;;2.60;0.80;;;;;;;19.31;44.44;101328.22;16138897;19;130791;-39
2022/10/20 02:15:04;;;;;;;0.52;0.50;;;;;;;19.29;44.17;101310.97;16135074;19;129648;-39
2022/10/20 02:20:29;;;;;;;1.10;0.67;;;;;;;19.27;44.01;101294.56;16131328;19;129183;-39
2022/10/20 02:25:55;;;;;;;1.75;0.60;;;;;;;19.27;44.10;101279.84;16133280;19;128858;-39
2022/10/20 02:31:18;;;;;;;3.75;0.60;;;;;;;19.27;44.58;101274.31;16133657;19;130642;-39
2022/10/20 02:36:41;;;;;;;1.08;0.70;;;;;;;19.27;44.35;101263.19;16132180;19;129460;-39
2022/10/20 02:42:03;;;;;;;2.85;0.80;;;;;;;19.24;44.30;101264.53;16132230;19;130136;-39
2022/10/20 02:47:25;;;;;;;1.20;0.63;;;;;;;19.24;44.08;101252.63;16130588;19;129746;-39
2022/10/20 02:52:46;;;;;;;0.60;0.55;;;;;;;19.24;44.15;101247.06;16128795;19;129509;-41
2022/10/20 02:58:09;;;;;;;2.80;0.70;;;;;;;19.23;44.56;101235.13;16134343;19;130130;-39
2022/10/20 03:03:30;;;;;;;0.75;0.57;;;;;;;19.22;44.19;101247.28;16124526;19;130687;-39
2022/10/20 03:08:52;;;;;;;1.48;0.77;;;;;;;19.21;44.28;101238.16;16127502;19;130368;-38
2022/10/20 03:14:14;;;;;;;1.25;0.70;;;;;;;19.21;44.08;101240.06;16128023;19;129765;-39
2022/10/20 03:19:36;;;;;;;0.73;0.60;;;;;;;19.21;44.54;101209.53;16131454;19;134081;-40
2022/10/20 03:24:57;;;;;;;1.45;0.70;;;;;;;19.19;44.55;101207.00;16126448;19;129431;-39
2022/10/20 03:30:19;;;;;;;0.95;0.60;;;;;;;19.19;44.47;101211.72;16127625;19;129781;-39
2022/10/20 03:35:41;;;;;;;1.58;0.65;;;;;;;19.19;44.49;101208.94;16127494;19;130446;-39
2022/10/20 03:41:02;;;;;;;0.98;0.60;;;;;;;19.18;44.46;101199.75;16127040;19;129753;-38
2022/10/20 03:46:24;;;;;;;0.90;0.57;;;;;;;19.17;44.07;101194.47;16127260;19;130071;-39
2022/10/20 03:51:46;;;;;;;1.92;0.75;;;;;;;19.17;44.51;101177.81;16125941;19;129770;-39
2022/10/20 03:57:08;;;;;;;0.77;0.63;;;;;;;19.16;44.15;101174.19;16126459;19;130244;-39
2022/10/20 04:02:36;;;;;;;0.60;0.60;;;;;;;19.16;44.43;101173.38;16125638;19;129471;-39
2022/10/20 04:07:58;;;;;;;0.73;0.63;;;;;;;19.16;44.33;101184.47;16129070;19;129579;-39
2022/10/20 04:13:20;;;;;;;0.60;0.60;;;;;;;19.15;44.13;101197.47;16125055;19;130969;-39
2022/10/20 04:18:41;;;;;;;1.58;0.80;;;;;;;19.16;44.14;101192.78;16122369;19;129677;-39
2022/10/20 04:24:04;;;;;;;1.00;0.60;;;;;;;19.15;44.15;101191.09;16125454;19;129677;-39
2022/10/20 04:29:26;;;;;;;0.60;0.50;;;;;;;19.15;44.44;101216.06;16124950;19;129061;-39
2022/10/20 04:34:47;;;;;;;0.85;0.50;;;;;;;19.15;44.30;101191.09;16124694;19;129564;-39
2022/10/20 04:40:09;;;;;;;1.23;0.80;;;;;;;19.13;44.55;101160.84;16124829;19;130434;-39
2022/10/20 04:45:31;;;;;;;1.27;0.68;;;;;;;19.13;44.36;101163.63;16124988;19;131477;-39
2022/10/20 04:51:00;;;;;;;1.10;0.55;;;;;;;19.15;44.56;101149.50;16124665;19;128963;-38
2022/10/20 04:56:22;;;;;;;1.05;0.55;;;;;;;19.14;44.25;101158.91;16120487;19;129304;-38
2022/10/20 05:01:44;;;;;;;0.77;0.60;;;;;;;19.13;44.33;101148.88;16123415;19;129722;-39
2022/10/20 05:07:06;;;;;;;1.75;0.47;;;;;;;19.13;44.48;101135.03;16123400;19;130490;-39
2022/10/20 05:12:27;;;;;;;0.50;0.50;;;;;;;19.12;44.23;101141.66;16119498;19;129109;-39
2022/10/20 05:17:49;;;;;;;0.52;0.35;;;;;;;19.14;44.22;101142.25;16118827;19;129877;-39
2022/10/20 05:23:11;;;;;;;5.97;0.80;;;;;;;19.12;44.37;101144.41;16119795;19;129768;-39
2022/10/20 05:28:33;;;;;;;2.95;0.60;;;;;;;19.15;44.32;101139.22;16119684;19;129681;-39
2022/10/20 05:33:55;;;;;;;6.47;1.30;;;;;;;19.16;44.83;101120.66;16120530;19;129578;-39
2022/10/20 05:39:17;;;;;;;3.42;0.88;;;;;;;19.16;44.60;101109.56;16120382;19;129865;-39
2022/10/20 05:44:39;;;;;;;3.13;1.42;;;;;;;19.16;44.73;101124.28;16121064;19;129051;-39
2022/10/20 05:50:00;;;;;;;8.10;0.90;;;;;;;19.16;44.28;101123.44;16120626;19;134824;-39
2022/10/20 05:55:23;;;;;;;3.00;0.95;;;;;;;19.14;44.33;101117.28;16117793;19;130987;-39
2022/10/20 06:00:51;;;;;;;5.25;1.00;;;;;;;19.14;44.68;101097.88;16118735;19;129462;-38
2022/10/20 06:06:13;;;;;;;4.20;1.00;;;;;;;19.13;44.63;101096.19;16120849;19;129451;-39
2022/10/20 06:11:36;;;;;;;2.65;0.93;;;;;;;19.12;44.83;101102.81;16118481;19;129460;-42
2022/10/20 06:17:00;;;;;;;2.88;0.88;;;;;;;19.11;44.61;101081.72;16120532;19;129368;-41
2022/10/20 06:22:21;;;;;;;3.20;1.23;;;;;;;19.11;44.66;101085.38;16116735;19;129657;-42
2022/10/20 06:27:43;;;;;;;5.28;1.85;;;;;;;19.10;44.79;101086.44;16123832;19;130065;-41
2022/10/20 06:33:05;;;;;;;3.38;1.23;;;;;;;19.10;44.67;101074.50;16132747;19;129249;-40
2022/10/20 06:38:27;;;;;;;7.82;1.13;;;;;;;19.10;44.64;101091.13;16132339;19;129710;-40
2022/10/20 06:43:49;;;;;;;1.65;0.90;;;;;;;19.08;44.87;101096.94;16131892;19;129390;-40
2022/10/20 06:49:11;;;;;;;5.55;0.90;;;;;;;19.10;44.39;101099.44;16131691;19;129844;-40
2022/10/20 06:54:33;;;;;;;5.00;0.90;;;;;;;19.08;44.73;101103.31;16133778;19;129377;-41
2022/10/20 06:59:54;;;;;;;3.72;0.90;;;;;;;19.08;44.55;101111.63;16134240;19;129402;-40
2022/10/20 07:05:16;;;;;;;4.82;0.80;;;;;;;19.08;44.68;101103.31;16132862;19;129643;-40
2022/10/20 07:10:38;;;;;;;2.22;1.02;;;;;;;19.08;44.80;101095.00;16134690;19;129606;-40
2022/10/20 07:16:00;;;;;;;1.02;0.70;;;;;;;19.08;44.53;101097.75;16131397;19;129465;-42
2022/10/20 07:21:27;;;;;;;1.67;0.60;;;;;;;19.13;44.50;101102.59;16131292;19;129592;-41
2022/10/20 07:26:56;;;;;;;1.33;0.60;;;;;;;19.13;44.63;101110.06;16131632;19;130378;-40
2022/10/20 07:32:17;;;;;;;1.13;0.70;;;;;;;19.11;44.75;101109.47;16131470;19;129630;-40
2022/10/20 07:37:39;;;;;;;2.03;0.80;;;;;;;19.10;44.39;101102.22;16133263;19;129694;-40
2022/10/20 07:43:01;;;;;;;1.83;0.60;;;;;;;19.07;44.49;101109.97;16131955;19;129705;-40
2022/10/20 07:48:23;;;;;;;1.73;0.60;;;;;;;19.06;44.85;101119.38;16129202;19;129688;-39
2022/10/20 07:53:44;;;;;;;3.35;0.60;;;;;;;19.06;44.93;101119.38;16130684;19;129647;-43
2022/10/20 07:59:08;;;;;;;2.65;0.63;;;;;;;19.06;44.78;101129.59;16131084;19;130434;-40
2022/10/20 08:04:30;;;;;;;1.55;0.68;;;;;;;19.06;44.85;101130.47;16126327;19;130799;-40
2022/10/20 08:09:52;;;;;;;1.58;0.70;;;;;;;19.05;44.68;101114.06;16130748;19;129457;-40
2022/10/20 08:15:14;;;;;;;0.63;0.50;;;;;;;19.04;44.78;101102.13;16126917;19;129866;-41
2022/10/20 08:20:40;;;;;;;0.95;0.70;;;;;;;19.04;44.77;101088.28;16129458;19;129398;-40
2022/10/20 08:26:02;;;;;;;0.85;0.50;;;;;;;19.05;44.71;101089.97;16125722;19;129666;-40
2022/10/20 08:31:28;;;;;;;1.77;0.40;;;;;;;19.05;44.93;101101.06;16125957;19;130558;-40
2022/10/20 08:36:49;;;;;;;0.90;0.50;;;;;;;19.06;44.99;101108.28;16128352;19;130301;-40
2022/10/20 08:42:11;;;;;;;0.88;0.50;;;;;;;19.06;44.77;101094.41;16126327;19;129281;-40
2022/10/20 08:47:36;;;;;;;0.75;0.40;;;;;;;19.07;44.72;101093.34;16126632;19;129720;-41
2022/10/20 08:52:59;;;;;;;0.98;0.40;;;;;;;19.07;44.97;101087.78;16128722;19;130298;-40
2022/10/20 08:58:23;;;;;;;0.77;0.40;;;;;;;19.08;44.55;101106.09;16126357;19;130172;-41
2022/10/20 09:03:55;;;;;;;0.70;0.50;;;;;;;19.06;44.57;101071.38;16127322;19;129537;-40
2022/10/20 09:09:20;;;;;;;0.60;0.40;;;;;;;19.05;44.91;101081.63;16126289;19;130663;-40
2022/10/20 09:14:41;;;;;;;1.70;0.63;;;;;;;19.05;45.08;101123.22;16126732;19;129752;-41
2022/10/20 09:20:10;;;;;;;1.45;0.50;;;;;;;19.05;44.77;101089.97;16123346;19;129471;-40
2022/10/20 09:25:33;;;;;;;0.95;0.40;;;;;;;19.04;45.16;101091.03;16126794;19;129352;-41
2022/10/20 09:30:56;;;;;;;0.82;0.60;;;;;;;19.04;45.14;101099.38;16124826;19;129631;-41
2022/10/20 09:36:19;;;;;;;0.45;0.35;;;;;;;19.04;45.09;101098.50;16123894;19;129566;-40
2022/10/20 09:41:41;;;;;;;2.33;0.57;;;;;;;19.03;44.93;101081.03;16125228;19;130673;-42
2022/10/20 09:47:03;;;;;;;1.77;0.68;;;;;;;19.03;44.72;101081.03;16125003;19;130765;-40
2022/10/20 09:52:30;;;;;;;1.20;0.50;;;;;;;19.02;45.04;101071.03;16120420;19;129404;-40
2022/10/20 09:57:54;;;;;;;1.25;0.40;;;;;;;19.02;44.87;101057.16;16122961;19;131813;-41
2022/10/20 10:03:22;;;;;;;0.93;0.55;;;;;;;19.03;45.17;101031.13;16131331;19;129981;-41
2022/10/20 10:08:45;;;;;;;0.65;0.50;;;;;;;19.02;44.78;101029.44;16136917;19;130408;-43
2022/10/20 10:14:20;;;;;;;0.38;0.30;;;;;;;19.03;44.89;101025.59;16136259;19;131256;-44
2022/10/20 10:19:47;;;;;;;0.32;0.30;;;;;;;19.01;44.96;101027.75;16136456;19;129496;-43
2022/10/20 10:25:26;;;;;;;1.02;0.43;;;;;;;19.01;44.82;101027.75;16133520;19;135193;-41
2022/10/20 10:30:47;;;;;;;0.63;0.50;;;;;;;19.00;45.03;101016.94;16135483;19;131224;-46
2022/10/20 10:36:34;;;;;;;1.30;0.40;;;;;;;18.99;45.24;101007.75;16135323;19;129710;-41
2022/10/20 10:42:37;;;;;;;2.05;0.70;;;;;;;19.02;44.87;100990.63;16134242;19;129845;-46
2022/10/20 10:48:30;;;;;;;1.25;0.52;;;;;;;19.04;44.94;100982.06;16134183;19;130158;-41
2022/10/20 10:54:00;;;;;;;0.93;0.77;;;;;;;19.03;45.29;100985.91;16132758;19;129885;-42
2022/10/20 10:59:29;;;;;;;1.00;0.50;;;;;;;19.05;44.85;100987.38;16131453;19;129322;-41
2022/10/20 11:04:56;;;;;;;1.38;0.60;;;;;;;19.05;45.20;100989.28;16132876;19;129297;-40
2022/10/20 11:10:46;;;;;;;0.90;0.50;;;;;;;19.05;45.04;100998.47;16132805;19;129334;-40
2022/10/20 11:16:29;;;;;;;0.98;0.50;;;;;;;19.03;45.07;101003.41;16130003;19;129641;-40
2022/10/20 11:21:56;;;;;;;1.10;0.55;;;;;;;19.03;45.37;101013.63;16131344;19;129538;-40
2022/10/20 11:27:26;;;;;;;1.20;0.60;;;;;;;19.04;44.97;101009.78;16129956;19;130216;-43
2022/10/20 11:33:25;;;;;;;0.93;0.50;;;;;;;19.04;45.16;101021.72;16130185;19;129638;-40
2022/10/20 11:38:52;;;;;;;1.20;0.80;;;;;;;19.08;44.98;101006.25;16122911;19;129636;-40
2022/10/20 11:44:26;;;;;;;1.20;0.70;;;;;;;19.11;45.28;101001.31;16121923;19;130320;-40
2022/10/20 11:49:48;;;;;;;2.53;0.77;;;;;;;19.11;45.24;100998.53;16120950;19;129540;-41
2022/10/20 11:55:12;;;;;;;0.63;0.55;;;;;;;19.13;45.37;100991.69;16118391;19;129424;-40
2022/10/20 12:00:46;;;;;;;1.30;0.82;;;;;;;19.15;45.00;100983.94;16120026;19;130243;-40
2022/10/20 12:06:18;;;;;;;1.70;0.70;;;;;;;19.19;45.36;100985.13;16122165;19;130852;-40
2022/10/20 12:11:58;;;;;;;1.17;0.90;;;;;;;19.21;45.17;100973.78;16125412;19;129296;-40
2022/10/20 12:17:40;;;;;;;1.00;0.60;;;;;;;19.21;45.10;100963.56;16130014;19;129613;-40
2022/10/20 12:23:03;;;;;;;0.88;0.73;;;;;;;19.21;45.20;100957.16;16127536;19;129466;-41
2022/10/20 12:28:26;;;;;;;1.55;0.80;;;;;;;19.21;45.44;100948.84;16125467;19;128955;-40
2022/10/20 12:33:48;;;;;;;1.42;0.90;;;;;;;19.21;45.23;100948.84;16122013;19;130398;-40
2022/10/20 12:39:21;;;;;;;1.08;0.90;;;;;;;19.23;45.56;100935.56;16126148;19;130807;-40
2022/10/20 12:44:44;;;;;;;1.63;0.90;;;;;;;19.22;45.59;100928.34;16125528;19;130619;-43
2022/10/20 12:50:42;;;;;;;1.30;0.80;;;;;;;19.25;45.60;100922.28;16126232;19;129456;-40
2022/10/20 12:56:07;;;;;;;1.35;1.05;;;;;;;19.24;45.63;100915.06;16124073;19;130230;-40
2022/10/20 13:01:28;;;;;;;1.00;0.80;;;;;;;19.25;45.39;100913.16;16124017;19;130955;-41
2022/10/20 13:06:52;;;;;;;0.75;0.70;;;;;;;19.23;45.41;100913.38;16124086;19;128927;-41
2022/10/20 13:12:25;;;;;;;1.13;1.00;;;;;;;19.27;45.61;100914.56;16124452;19;129702;-40
2022/10/20 13:17:56;;;;;;;1.35;0.80;;;;;;;19.26;45.48;100901.78;16121960;19;129635;-40
2022/10/20 13:23:33;;;;;;;1.48;0.80;;;;;;;19.27;45.73;100892.38;16120991;19;129464;-40
2022/10/20 13:28:58;;;;;;;1.60;1.10;;;;;;;19.26;46.01;100884.31;16119097;19;129786;-40
2022/10/20 13:34:50;;;;;;;1.48;0.93;;;;;;;19.26;45.80;100879.59;16122057;19;130069;-40
2022/10/20 13:40:21;;;;;;;0.77;0.70;;;;;;;19.24;45.90;100873.47;16136155;19;129401;-40
2022/10/20 13:46:08;;;;;;;1.63;0.70;;;;;;;19.25;46.03;100877.91;16138005;19;129515;-41
2022/10/20 13:51:36;;;;;;;1.83;0.93;;;;;;;19.22;46.11;100867.31;16135986;19;129311;-40
2022/10/20 13:56:58;;;;;;;0.93;0.63;;;;;;;19.22;46.02;100872.88;16138495;19;129393;-39
2022/10/20 14:02:30;;;;;;;1.42;0.80;;;;;;;19.25;46.02;100871.53;16134497;19;129617;-40
2022/10/20 14:07:52;;;;;;;1.45;0.80;;;;;;;19.24;46.18;100867.91;16135539;19;129961;-40
2022/10/20 14:13:20;;;;;;;0.85;0.60;;;;;;;19.26;45.87;100862.97;16138763;19;129553;-40
2022/10/20 14:18:42;;;;;;;1.52;0.68;;;;;;;19.25;46.25;100855.72;16135747;19;129677;-40
2022/10/20 14:24:05;;;;;;;5.18;0.73;;;;;;;19.26;46.28;100849.09;16132994;19;129475;-40
2022/10/20 14:29:29;;;;;;;2.08;0.82;;;;;;;19.26;46.30;100851.88;16134111;19;129447;-40
2022/10/20 14:34:59;;;;;;;0.95;0.68;;;;;;;19.27;46.24;100847.16;16133737;19;129928;-40
2022/10/20 14:40:27;;;;;;;0.98;0.80;;;;;;;19.25;46.48;100852.97;16135265;19;134036;-40
2022/10/20 14:45:55;;;;;;;2.15;0.90;;;;;;;19.25;46.55;100850.19;16134998;19;129813;-40
2022/10/20 14:51:29;;;;;;;1.08;0.80;;;;;;;19.27;46.41;100836.91;16130908;19;129202;-40
2022/10/20 14:56:57;;;;;;;1.92;0.90;;;;;;;19.25;46.29;100825.22;16135191;19;129703;-40
2022/10/20 15:02:22;;;;;;;1.00;0.65;;;;;;;19.25;46.50;100833.53;16132086;19;129539;-40
2022/10/20 15:07:44;;;;;;;1.60;0.80;;;;;;;19.25;46.34;100825.22;16132183;19;129543;-41
2022/10/20 15:13:19;;;;;;;1.50;0.80;;;;;;;19.27;46.24;100827.72;16129260;19;129684;-40
2022/10/20 15:18:46;;;;;;;2.25;0.80;;;;;;;19.25;46.49;100833.53;16130913;19;130235;-40
2022/10/20 15:24:08;;;;;;;1.65;0.88;;;;;;;19.25;46.35;100828.00;16127569;19;130011;-41
2022/10/20 15:29:31;;;;;;;1.30;0.75;;;;;;;19.24;46.74;100829.09;16125735;19;131246;-40
2022/10/20 15:34:52;;;;;;;10.75;1.67;;;;;;;19.27;47.86;100820.25;16127820;19;129635;-41
2022/10/20 15:40:14;;;;;;;7.53;1.85;;;;;;;19.29;48.20;100815.31;16127084;19;129493;-40
2022/10/20 15:45:39;;;;;;;5.32;1.98;;;;;;;19.32;48.77;100812.00;16128202;19;130511;-41
2022/10/20 15:51:01;;;;;;;4.83;1.83;;;;;;;19.36;48.79;100813.19;16129590;19;134542;-40
2022/10/20 15:56:23;;;;;;;13.25;2.30;;;;;;;19.41;49.34;100808.81;16127510;19;129578;-41
2022/10/20 16:01:45;;;;;;;16.23;4.20;;;;;;;19.44;49.59;100800.81;16128180;19;129996;-40
2022/10/20 16:07:06;;;;;;;14.93;5.05;;;;;;;19.47;50.16;100791.13;16121854;19;129669;-40
2022/10/20 16:12:28;;;;;;;18.13;4.53;;;;;;;19.50;50.53;100796.19;16119709;19;130142;-40
2022/10/20 16:17:50;;;;;;;17.42;4.80;;;;;;;19.52;50.78;100799.56;16127090;19;129675;-40
2022/10/20 16:23:12;;;;;;;17.60;4.45;;;;;;;19.53;51.05;100802.06;16128783;19;129408;-40
2022/10/20 16:28:34;;;;;;;12.25;4.00;;;;;;;19.52;51.01;100796.78;16128621;19;129566;-40
2022/10/20 16:33:59;;;;;;;16.70;4.15;;;;;;;19.49;50.87;100800.06;16124480;19;130297;-40
2022/10/20 16:39:21;;;;;;;13.02;3.38;;;;;;;19.43;50.76;100790.00;16122212;19;134060;-41
2022/10/20 16:44:44;;;;;;;9.38;3.47;;;;;;;19.45;50.28;100793.31;16125394;19;129719;-40
2022/10/20 16:50:06;;;;;;;5.95;3.05;;;;;;;19.45;50.13;100783.09;16128034;19;129420;-42
2022/10/20 16:55:28;;;;;;;7.88;2.88;;;;;;;19.46;49.96;100776.44;16120681;19;129720;-41
2022/10/20 17:01:00;;;;;;;4.50;2.30;;;;;;;19.58;49.94;100778.25;16122557;19;129815;-41
2022/10/20 17:06:24;;;;;;;12.25;2.63;;;;;;;19.65;49.88;100767.78;16122551;19;129836;-43
2022/10/20 17:11:46;;;;;;;6.25;2.53;;;;;;;19.71;49.51;100774.25;16119124;19;129795;-40
2022/10/20 17:17:08;;;;;;;4.85;2.50;;;;;;;19.71;49.18;100768.72;16121988;19;129554;-40
2022/10/20 17:22:29;;;;;;;8.73;2.88;;;;;;;19.69;49.20;100767.03;16119825;19;129991;-41
2022/10/20 17:27:51;;;;;;;9.48;2.47;;;;;;;19.69;49.08;100760.66;16121285;19;129243;-41
2022/10/20 17:33:13;;;;;;;8.93;2.65;;;;;;;19.66;49.09;100759.22;16118700;19;129746;-40
2022/10/20 17:38:34;;;;;;;5.72;2.22;;;;;;;19.66;49.22;100762.00;16121858;19;130429;-40
2022/10/20 17:44:01;;;;;;;6.70;1.98;;;;;;;19.65;48.97;100765.03;16042431;19;154034;-40
2022/10/20 17:49:23;;;;;;;6.22;2.20;;;;;;;19.61;49.03;100764.72;16120401;19;129455;-40
2022/10/20 17:54:44;;;;;;;6.05;1.98;;;;;;;19.57;48.88;100752.44;16115814;19;130321;-40
2022/10/20 18:00:07;;;;;;;4.28;2.13;;;;;;;19.56;48.78;100750.78;16117180;19;129540;-41
2022/10/20 18:05:36;;;;;;;8.68;2.30;;;;;;;19.52;48.53;100763.47;16119024;19;129336;-42
2022/10/20 18:10:58;;;;;;;4.43;1.92;;;;;;;19.50;48.94;100762.88;16117494;19;129463;-40
2022/10/20 18:16:20;;;;;;;11.10;2.33;;;;;;;19.49;48.76;100761.22;16118691;19;129747;-40
2022/10/20 18:21:42;;;;;;;21.42;2.90;;;;;;;19.57;49.33;100771.84;16115047;19;130878;-42
2022/10/20 18:27:04;;;;;;;14.20;2.75;;;;;;;19.83;48.97;100778.59;16133026;19;129328;-41
2022/10/20 18:32:26;;;;;;;21.48;2.92;;;;;;;20.22;48.64;100777.69;16130293;19;130393;-41
2022/10/20 18:37:51;;;;;;;17.83;3.83;;;;;;;20.66;48.39;100779.53;16131184;19;129406;-41
2022/10/20 18:43:13;;;;;;;11.47;3.23;;;;;;;21.00;47.85;100779.28;16131839;19;129686;-41
2022/10/20 18:48:36;;;;;;;11.57;3.20;;;;;;;21.25;47.11;100768.63;16130706;19;131235;-40
2022/10/20 18:54:00;;;;;;;22.50;3.83;;;;;;;21.33;47.30;100760.59;16130025;19;129599;-43
2022/10/20 18:59:22;;;;;;;17.73;3.47;;;;;;;21.36;46.96;100773.13;16130387;19;129190;-44
2022/10/20 19:04:44;;;;;;;27.15;4.55;;;;;;;21.35;46.97;100763.09;16130550;19;129907;-40
2022/10/20 19:10:06;;;;;;;29.60;4.43;;;;;;;21.35;47.41;100751.97;16131551;19;129789;-40
2022/10/20 19:15:27;;;;;;;29.65;4.20;;;;;;;21.29;47.46;100742.75;16127809;19;130269;-42
2022/10/20 19:21:00;;;;;;;19.50;3.65;;;;;;;21.25;47.83;100729.66;16129091;19;129211;-40
2022/10/20 19:26:28;;;;;;;23.08;3.90;;;;;;;21.19;47.70;100715.72;16126238;19;129684;-39
2022/10/20 19:31:55;;;;;;;17.95;3.55;;;;;;;21.14;47.81;100696.22;16127886;19;130437;-41
2022/10/20 19:37:17;;;;;;;16.85;3.00;;;;;;;21.08;47.70;100679.78;16128408;19;129484;-42
2022/10/20 19:42:39;;;;;;;15.20;2.67;;;;;;;20.99;47.92;100671.91;16127231;19;129743;-39
2022/10/20 19:48:01;;;;;;;14.52;2.72;;;;;;;20.98;47.92;100688.88;16124277;19;130801;-40
2022/10/20 19:53:23;;;;;;;13.68;2.92;;;;;;;21.02;48.06;100676.13;16127968;19;130155;-39
2022/10/20 19:58:45;;;;;;;10.88;2.95;;;;;;;21.12;47.90;100664.19;16129176;19;129672;-41
2022/10/20 20:04:07;;;;;;;15.70;2.95;;;;;;;21.17;47.96;100673.41;16128498;19;129547;-41
2022/10/20 20:09:29;;;;;;;13.90;3.60;;;;;;;21.22;47.82;100676.22;16123921;19;129328;-38
2022/10/20 20:14:51;;;;;;;10.13;2.53;;;;;;;21.25;47.90;100685.97;16123829;19;129789;-41
2022/10/20 20:20:13;;;;;;;10.73;2.72;;;;;;;21.23;47.95;100685.44;16124859;19;129498;-42
2022/10/20 20:25:39;;;;;;;13.65;2.97;;;;;;;21.20;47.84;100689.56;16127584;19;130083;-39
2022/10/20 20:31:06;;;;;;;16.85;2.50;;;;;;;21.12;48.08;100687.31;16128745;19;135473;-38
2022/10/20 20:36:29;;;;;;;10.20;3.03;;;;;;;21.02;48.29;100695.59;16121079;19;130449;-39
2022/10/20 20:41:50;;;;;;;13.05;2.72;;;;;;;20.93;48.13;100691.63;16124189;19;129464;-39
2022/10/20 20:47:12;;;;;;;12.20;2.72;;;;;;;20.83;47.93;100687.66;16119719;19;130514;-39
2022/10/20 20:52:34;;;;;;;11.82;2.50;;;;;;;20.78;48.53;100697.91;16122160;19;129544;-39
2022/10/20 20:57:55;;;;;;;8.40;2.22;;;;;;;20.69;48.31;100687.25;16125430;19;129272;-39
2022/10/20 21:03:18;;;;;;;6.40;1.70;;;;;;;20.62;48.57;100702.50;16124497;19;129676;-39
2022/10/20 21:08:42;;;;;;;5.50;2.05;;;;;;;20.56;48.36;100713.56;16125340;19;130103;-39
2022/10/20 21:14:03;;;;;;;7.60;2.47;;;;;;;20.50;48.59;100709.06;16122067;19;129044;-39
2022/10/20 21:19:25;;;;;;;6.57;2.33;;;;;;;20.46;48.50;100702.34;16122252;19;129318;-39
2022/10/20 21:24:47;;;;;;;5.28;1.90;;;;;;;20.42;48.67;100704.00;16120436;19;129853;-39
2022/10/20 21:30:09;;;;;;;6.38;1.52;;;;;;;20.39;48.66;100694.22;16120496;19;130098;-39
2022/10/20 21:35:30;;;;;;;8.98;1.70;;;;;;;20.35;48.78;100692.25;16119371;19;130327;-39
2022/10/20 21:40:52;;;;;;;8.88;2.03;;;;;;;20.32;48.71;100693.63;16118584;19;129079;-39
2022/10/20 21:46:22;;;;;;;6.32;2.10;;;;;;;20.29;48.67;100681.09;16116698;19;129937;-39
2022/10/20 21:51:48;;;;;;;6.82;1.90;;;;;;;20.27;48.40;100674.13;16117038;19;129147;-39
2022/10/20 21:57:10;;;;;;;5.90;1.63;;;;;;;20.24;48.67;100669.94;16122933;19;129582;-39
2022/10/20 22:02:32;;;;;;;5.20;1.75;;;;;;;20.22;48.47;100674.91;16136465;19;130045;-39
2022/10/20 22:07:53;;;;;;;3.15;1.30;;;;;;;20.21;48.28;100669.63;16133701;19;130716;-39
2022/10/20 22:13:15;;;;;;;4.57;1.88;;;;;;;20.19;48.22;100664.31;16133733;19;129643;-38
2022/10/20 22:18:37;;;;;;;6.60;1.60;;;;;;;20.17;48.27;100666.56;16133348;19;130616;-38
2022/10/20 22:23:59;;;;;;;4.68;1.30;;;;;;;20.16;48.20;100675.13;16131222;19;129533;-39
2022/10/20 22:29:21;;;;;;;3.60;1.58;;;;;;;20.14;48.63;100672.63;16131743;19;133639;-39
2022/10/20 22:34:43;;;;;;;2.38;1.27;;;;;;;20.12;48.72;100675.63;16132863;19;129616;-39
2022/10/20 22:40:06;;;;;;;6.18;1.52;;;;;;;20.09;48.59;100676.19;16133456;19;129819;-39
2022/10/20 22:45:27;;;;;;;3.55;1.33;;;;;;;20.06;48.58;100679.47;16132901;19;129505;-39
2022/10/20 22:50:49;;;;;;;4.30;1.42;;;;;;;20.06;48.61;100684.22;16133672;19;129293;-39
2022/10/20 22:56:14;;;;;;;3.65;1.17;;;;;;;20.06;48.20;100678.66;16132655;19;131165;-40
2022/10/20 23:01:36;;;;;;;2.55;1.10;;;;;;;20.02;48.14;100677.50;16132328;19;133519;-39
2022/10/20 23:06:58;;;;;;;6.25;1.00;;;;;;;20.02;48.15;100677.50;16131147;19;129278;-39
2022/10/20 23:12:40;;;;;;;3.60;1.42;;;;;;;20.02;48.63;100680.28;16127637;19;129713;-38
2022/10/20 23:18:02;;;;;;;2.05;1.00;;;;;;;19.98;48.38;100685.50;16129415;19;129660;-39
2022/10/20 23:23:24;;;;;;;1.35;0.80;;;;;;;19.97;48.07;100690.19;16126741;19;129747;-39
2022/10/20 23:28:47;;;;;;;2.92;1.05;;;;;;;19.95;48.56;100675.72;16127679;19;129258;-39
2022/10/20 23:34:09;;;;;;;2.20;1.10;;;;;;;19.94;48.61;100682.38;16127798;19;129707;-38
2022/10/20 23:39:30;;;;;;;2.00;0.82;;;;;;;19.94;48.43;100681.53;16128247;19;129676;-39
2022/10/20 23:44:52;;;;;;;2.53;1.00;;;;;;;19.92;48.39;100670.72;16127898;19;130372;-39
2022/10/20 23:50:15;;;;;;;1.08;0.65;;;;;;;19.90;48.67;100672.91;16125697;19;130325;-39
2022/10/20 23:55:37;;;;;;;2.20;0.90;;;;;;;19.90;48.16;100678.47;16124194;19;130329;-39
